Terminal Aerodrome Forecast
Issued by NWS Charleston, WV

Current Version | Previous Version | Graphics & Text | Print | Product List | Glossary On
Versions: 1 2 3 4 5 6 7 8 9 10 11 12 13 14 15 16 17 18 19 20 21 22 23 24 25 26 27
000
FTUS41 KRLX 120500
TAFCRW
TAF
KCRW 120527Z 1206/1306 36003KT P6SM BKN012 OVC025
     FM120900 01004KT 3SM -DZ BR OVC008
     FM121200 02004KT 1SM BR OVC001
     FM121300 02004KT 3SM BR OVC008
     FM121700 02004KT 5SM BR BKN015
     FM121800 01004KT P6SM BKN015
     FM122000 02004KT P6SM BKN025=

USA.gov is the U.S. government's official web portal to all federal, state and local government web resources and services.